Time;durP1;ratioP1;P1;durP2;ratioP2;P2;SDS_P1;SDS_P2;PMS_P1;PMS_P2;Temp;Humidity;BMP_temperature;BMP_pressure;BME280_temperature;BME280_humidity;BME280_pressure;Samples;Min_cycle;Max_cycle;Signal;HPM_P1;HPM_P2
2022/04/15 00:00:02;;;;;;;6.15;4.22;;;13.50;4.20;;;;;;7385124;19;20493;-63
2022/04/15 00:02:31;;;;;;;7.20;4.30;;;13.50;4.00;;;;;;7367421;19;20061;-62
2022/04/15 00:05:01;;;;;;;5.38;4.47;;;13.50;4.70;;;;;;7361612;19;20479;-61
2022/04/15 00:07:31;;;;;;;7.32;4.97;;;13.40;5.20;;;;;;7365565;19;20011;-63
2022/04/15 00:10:01;;;;;;;6.65;4.07;;;13.40;5.50;;;;;;7362567;19;20010;-63
2022/04/15 00:12:34;;;;;;;8.18;4.90;;;13.40;5.10;;;;;;7367559;19;21052;-64
2022/04/15 00:15:04;;;;;;;7.25;4.60;;;13.40;5.00;;;;;;7383172;19;20034;-64
2022/04/15 00:17:34;;;;;;;6.25;4.38;;;13.30;5.30;;;;;;7365658;19;20539;-64
2022/04/15 00:20:04;;;;;;;6.18;4.13;;;13.30;5.50;;;;;;7362940;19;20013;-64
2022/04/15 00:22:34;;;;;;;6.75;3.90;;;13.30;6.30;;;;;;7365703;19;20078;-63
2022/04/15 00:25:05;;;;;;;7.55;4.35;;;13.20;6.20;;;;;;7361151;19;20014;-62
2022/04/15 00:27:37;;;;;;;5.88;4.15;;;13.20;6.30;;;;;;7365543;19;20074;-62
2022/04/15 00:30:09;;;;;;;6.47;4.60;;;13.10;6.70;;;;;;7382649;19;20097;-63
2022/04/15 00:32:39;;;;;;;5.70;4.07;;;13.10;6.80;;;;;;7365848;19;20010;-63
2022/04/15 00:35:11;;;;;;;6.60;4.68;;;13.10;7.00;;;;;;7360278;19;20352;-63
2022/04/15 00:37:41;;;;;;;8.57;4.05;;;13.10;7.70;;;;;;7363004;19;20501;-63
2022/04/15 00:40:12;;;;;;;6.82;3.83;;;13.00;7.60;;;;;;7364568;19;20470;-62
2022/04/15 00:42:45;;;;;;;8.10;4.32;;;13.10;7.10;;;;;;7366840;19;20022;-63
2022/04/15 00:45:15;;;;;;;6.20;4.20;;;13.10;7.30;;;;;;7382224;19;20014;-62
2022/04/15 00:47:53;;;;;;;7.43;4.70;;;13.10;7.00;;;;;;7363282;19;20014;-63
2022/04/15 00:50:24;;;;;;;7.97;4.20;;;13.10;7.20;;;;;;7365307;19;21424;-63
2022/04/15 00:52:55;;;;;;;10.90;4.93;;;13.00;7.80;;;;;;7364960;19;20077;-63
2022/04/15 00:55:26;;;;;;;7.72;4.82;;;13.00;8.40;;;;;;7362377;19;20520;-63
2022/04/15 00:58:00;;;;;;;7.78;4.40;;;12.90;8.60;;;;;;7364515;19;20010;-63
2022/04/15 01:00:33;;;;;;;4.70;4.07;;;12.90;9.10;;;;;;7365291;19;20141;-62
2022/04/15 01:03:06;;;;;;;6.32;4.40;;;12.90;9.10;;;;;;7386605;19;20374;-63
2022/04/15 01:05:37;;;;;;;6.95;4.90;;;12.90;9.70;;;;;;7357296;19;20017;-63
2022/04/15 01:08:08;;;;;;;8.73;4.32;;;12.90;9.80;;;;;;7362643;19;20010;-63
2022/04/15 01:10:39;;;;;;;8.80;4.05;;;12.80;9.70;;;;;;7364926;19;20002;-62
2022/04/15 01:13:15;;;;;;;6.25;4.40;;;12.80;9.70;;;;;;7365669;19;20090;-62
2022/04/15 01:15:56;;;;;;;5.88;4.35;;;12.90;9.80;;;;;;7357298;19;20847;-62
2022/04/15 01:18:26;;;;;;;5.90;3.70;;;12.90;9.80;;;;;;7385652;19;20418;-62
2022/04/15 01:20:56;;;;;;;8.45;4.05;;;12.80;9.70;;;;;;7365688;19;20035;-62
2022/04/15 01:23:29;;;;;;;6.60;4.18;;;12.80;10.60;;;;;;7364391;19;20082;-63
2022/04/15 01:25:59;;;;;;;6.07;4.18;;;12.80;10.50;;;;;;7358099;19;20010;-63
2022/04/15 01:28:28;;;;;;;7.63;4.28;;;12.70;11.00;;;;;;7363418;19;20077;-61
2022/04/15 01:30:58;;;;;;;5.32;3.67;;;12.70;11.30;;;;;;7364162;19;20093;-62
2022/04/15 01:33:28;;;;;;;6.10;3.80;;;12.70;11.60;;;;;;7377009;19;20074;-62
2022/04/15 01:35:59;;;;;;;8.55;4.53;;;12.80;11.60;;;;;;7380093;19;20014;-63
2022/04/15 01:38:32;;;;;;;6.47;4.07;;;12.80;11.50;;;;;;7362294;19;20142;-63
2022/04/15 01:41:02;;;;;;;7.90;4.35;;;12.70;11.90;;;;;;7364636;19;20513;-62
2022/04/15 01:43:32;;;;;;;6.93;4.53;;;12.70;11.20;;;;;;7365077;19;20027;-62
2022/04/15 01:46:02;;;;;;;8.02;4.10;;;12.70;11.70;;;;;;7357751;19;20006;-61
2022/04/15 01:48:31;;;;;;;6.07;4.13;;;12.70;11.10;;;;;;7362286;19;20025;-62
2022/04/15 01:51:01;;;;;;;6.43;4.40;;;12.80;10.50;;;;;;7385894;19;20006;-63
2022/04/15 01:53:34;;;;;;;6.18;4.75;;;12.80;10.50;;;;;;7362833;19;20010;-62
2022/04/15 01:56:05;;;;;;;6.10;4.43;;;12.80;10.50;;;;;;7359690;19;20017;-62
2022/04/15 01:58:36;;;;;;;6.97;4.78;;;12.80;10.50;;;;;;7361825;19;20018;-62
2022/04/15 02:01:06;;;;;;;7.60;4.93;;;12.80;11.10;;;;;;7363690;19;20085;-62
2022/04/15 02:03:36;;;;;;;7.18;4.22;;;12.80;10.90;;;;;;7363380;19;20447;-63
2022/04/15 02:06:06;;;;;;;8.02;4.65;;;12.70;11.50;;;;;;7380796;19;20018;-62
2022/04/15 02:08:38;;;;;;;6.40;5.00;;;12.50;12.70;;;;;;7361287;19;20032;-62
2022/04/15 02:11:08;;;;;;;7.88;4.32;;;12.50;13.10;;;;;;7364023;19;20011;-62
2022/04/15 02:13:38;;;;;;;6.85;4.80;;;12.50;13.10;;;;;;7368841;19;20033;-62
2022/04/15 02:16:08;;;;;;;8.90;5.10;;;12.50;13.20;;;;;;7367900;19;20017;-62
2022/04/15 02:18:39;;;;;;;6.97;4.60;;;12.50;14.00;;;;;;7369661;19;20014;-62
2022/04/15 02:21:08;;;;;;;8.45;5.25;;;12.50;13.80;;;;;;7391404;19;20014;-62
2022/04/15 02:23:41;;;;;;;7.72;5.68;;;12.40;14.30;;;;;;7368707;19;20010;-62
2022/04/15 02:26:11;;;;;;;8.82;5.40;;;12.40;14.10;;;;;;7367792;19;20065;-62
2022/04/15 02:28:40;;;;;;;10.00;5.72;;;12.40;14.10;;;;;;7368876;19;20665;-61
2022/04/15 02:31:10;;;;;;;8.27;6.40;;;12.40;14.50;;;;;;7370303;19;20486;-62
2022/04/15 02:33:40;;;;;;;7.78;6.97;;;12.30;14.80;;;;;;7368593;19;20014;-62
2022/04/15 02:36:10;;;;;;;11.30;6.85;;;12.30;15.60;;;;;;7388368;19;20018;-62
2022/04/15 02:38:43;;;;;;;9.80;6.80;;;12.20;16.50;;;;;;7368648;19;20010;-63
2022/04/15 02:41:13;;;;;;;12.73;6.75;;;12.20;16.50;;;;;;7370600;19;20021;-62
2022/04/15 02:43:43;;;;;;;9.63;6.90;;;12.00;17.00;;;;;;7366481;19;20474;-62
2022/04/15 02:46:15;;;;;;;9.82;7.13;;;11.90;18.00;;;;;;7367152;19;20478;-62
2022/04/15 02:48:45;;;;;;;11.45;7.70;;;12.00;19.10;;;;;;7367294;19;20130;-63
2022/04/15 02:51:17;;;;;;;10.88;8.32;;;12.00;19.10;;;;;;7390325;19;20351;-63
2022/04/15 02:53:49;;;;;;;10.82;7.70;;;12.10;19.40;;;;;;7364778;19;20022;-62
2022/04/15 02:56:19;;;;;;;9.45;7.05;;;12.10;19.60;;;;;;7366554;19;20013;-62
2022/04/15 02:58:49;;;;;;;10.45;7.00;;;12.20;19.70;;;;;;7367121;19;20016;-63
2022/04/15 03:01:18;;;;;;;14.02;7.35;;;12.20;19.60;;;;;;7369842;19;20014;-62
2022/04/15 03:03:48;;;;;;;11.52;7.35;;;12.20;19.50;;;;;;7365631;19;20522;-63
2022/04/15 03:06:18;;;;;;;13.40;7.53;;;12.20;19.30;;;;;;7387964;19;20460;-63
2022/04/15 03:08:51;;;;;;;15.75;7.50;;;12.20;19.20;;;;;;7367638;19;20007;-63
2022/04/15 03:11:20;;;;;;;11.32;8.50;;;12.20;19.30;;;;;;7367350;19;20387;-62
2022/04/15 03:13:50;;;;;;;13.52;8.02;;;12.20;19.30;;;;;;7363956;19;20113;-62
2022/04/15 03:16:20;;;;;;;11.50;7.78;;;12.20;19.60;;;;;;7366557;19;20021;-62
2022/04/15 03:18:50;;;;;;;13.75;7.82;;;12.10;19.90;;;;;;7364733;19;20486;-62
2022/04/15 03:21:20;;;;;;;9.13;7.40;;;12.10;20.00;;;;;;7390325;19;20487;-62
2022/04/15 03:23:52;;;;;;;9.75;7.53;;;12.10;20.00;;;;;;7363930;19;20015;-63
2022/04/15 03:26:22;;;;;;;13.40;7.65;;;12.00;20.50;;;;;;7364716;19;20550;-63
2022/04/15 03:28:52;;;;;;;11.93;7.50;;;12.00;20.90;;;;;;7366699;19;20021;-62
2022/04/15 03:31:25;;;;;;;11.80;8.25;;;11.80;22.40;;;;;;7367679;19;20482;-62
2022/04/15 03:33:55;;;;;;;9.75;7.88;;;11.90;21.80;;;;;;7364034;19;20498;-62
2022/04/15 03:36:25;;;;;;;11.52;8.05;;;11.70;22.50;;;;;;7386635;19;20011;-62
2022/04/15 03:38:58;;;;;;;14.88;8.48;;;11.70;23.20;;;;;;7366633;19;20015;-62
2022/04/15 03:41:28;;;;;;;14.30;8.80;;;11.70;23.20;;;;;;7367653;19;20010;-62
2022/04/15 03:43:57;;;;;;;11.50;8.38;;;11.70;23.20;;;;;;7363485;19;20019;-62
2022/04/15 03:46:27;;;;;;;11.70;8.27;;;11.60;23.60;;;;;;7366169;19;20013;-62
2022/04/15 03:48:57;;;;;;;12.20;8.55;;;11.50;24.40;;;;;;7365416;19;20015;-62
2022/04/15 03:51:27;;;;;;;11.23;8.82;;;11.40;25.30;;;;;;7390485;19;20018;-62
2022/04/15 03:53:59;;;;;;;14.43;9.02;;;11.40;26.40;;;;;;7362740;19;20102;-62
2022/04/15 03:56:29;;;;;;;10.63;8.60;;;11.30;27.20;;;;;;7363482;19;20012;-62
2022/04/15 03:58:59;;;;;;;10.65;8.50;;;11.20;27.70;;;;;;7365613;19;20009;-62
2022/04/15 04:01:29;;;;;;;11.23;8.50;;;11.10;27.90;;;;;;7367417;19;20698;-61
2022/04/15 04:03:59;;;;;;;11.95;9.45;;;11.10;28.80;;;;;;7363118;19;20767;-61
2022/04/15 04:06:29;;;;;;;11.80;9.25;;;11.10;29.60;;;;;;7370972;19;20007;-62
2022/04/15 04:09:01;;;;;;;17.90;10.13;;;11.00;29.50;;;;;;7387304;19;20025;-62
2022/04/15 04:11:31;;;;;;;20.10;10.50;;;11.00;29.70;;;;;;7367443;19;20482;-61
2022/04/15 04:14:01;;;;;;;12.95;9.57;;;10.90;30.90;;;;;;7361252;19;20014;-62
2022/04/15 04:16:31;;;;;;;12.00;9.48;;;10.90;31.50;;;;;;7362904;19;20085;-61
2022/04/15 04:19:01;;;;;;;15.32;10.30;;;10.80;31.40;;;;;;7365981;19;20010;-61
2022/04/15 04:21:33;;;;;;;17.20;10.75;;;10.90;31.60;;;;;;7365219;19;20025;-62
2022/04/15 04:24:06;;;;;;;12.52;9.85;;;10.90;31.30;;;;;;7383769;19;20088;-62
2022/04/15 04:26:36;;;;;;;13.38;10.18;;;10.90;31.30;;;;;;7362199;19;20024;-61
2022/04/15 04:29:06;;;;;;;15.63;9.38;;;10.80;30.90;;;;;;7364323;19;20022;-61
2022/04/15 04:31:41;;;;;;;13.18;9.18;;;10.70;31.20;;;;;;7367906;19;20023;-61
2022/04/15 04:34:11;;;;;;;14.30;9.82;;;10.80;31.80;;;;;;7361036;19;20006;-61
2022/04/15 04:36:41;;;;;;;14.98;10.30;;;10.80;31.60;;;;;;7360320;19;20484;-61
2022/04/15 04:39:14;;;;;;;14.60;9.23;;;10.90;31.50;;;;;;7386600;19;20017;-62
2022/04/15 04:41:44;;;;;;;13.60;9.70;;;10.90;30.90;;;;;;7366488;19;20017;-61
2022/04/15 04:44:14;;;;;;;14.40;10.10;;;10.80;30.50;;;;;;7361537;19;20011;-61
2022/04/15 04:46:44;;;;;;;12.15;9.98;;;10.80;30.90;;;;;;7363561;19;20433;-61
2022/04/15 04:49:14;;;;;;;15.48;9.85;;;10.80;30.80;;;;;;7363663;19;20090;-61
2022/04/15 04:51:44;;;;;;;11.57;9.55;;;11.00;31.10;;;;;;7365720;19;20014;-61
2022/04/15 04:54:17;;;;;;;14.13;9.70;;;11.40;27.60;;;;;;7383604;19;20473;-61
2022/04/15 04:56:47;;;;;;;15.75;8.82;;;11.60;25.20;;;;;;7359376;19;20018;-61
2022/04/15 04:59:18;;;;;;;9.35;7.10;;;11.90;23.30;;;;;;7363744;19;20012;-62
2022/04/15 05:01:47;;;;;;;9.18;7.43;;;12.30;19.00;;;;;;7365169;19;20014;-62
2022/04/15 05:04:17;;;;;;;10.98;6.90;;;12.70;16.80;;;;;;7360698;19;20093;-62
2022/04/15 05:06:47;;;;;;;8.48;6.75;;;13.00;13.40;;;;;;7361513;19;20014;-62
2022/04/15 05:09:20;;;;;;;11.20;7.30;;;13.30;8.80;;;;;;7385155;19;20014;-62
2022/04/15 05:11:51;;;;;;;9.40;6.68;;;13.40;8.50;;;;;;7362414;19;20081;-62
2022/04/15 05:14:21;;;;;;;10.07;6.55;;;13.90;6.70;;;;;;7359596;19;20006;-61
2022/04/15 05:16:51;;;;;;;7.32;5.85;;;14.20;3.20;;;;;;7361392;19;20010;-62
2022/04/15 05:19:21;;;;;;;10.18;6.70;;;13.20;6.30;;;;;;7362278;19;20024;-62
2022/04/15 05:21:52;;;;;;;8.95;6.53;;;12.80;12.10;;;;;;7364695;19;20017;-62
2022/04/15 05:24:25;;;;;;;10.93;7.18;;;13.00;12.10;;;;;;7381636;19;20014;-60
2022/04/15 05:26:55;;;;;;;9.65;7.15;;;13.10;7.90;;;;;;7360186;19;20010;-63
2022/04/15 05:29:25;;;;;;;11.02;6.32;;;13.40;8.80;;;;;;7362128;19;20014;-60
2022/04/15 05:31:55;;;;;;;9.55;7.15;;;13.10;10.40;;;;;;7364902;19;20011;-61
2022/04/15 05:34:26;;;;;;;10.00;7.07;;;13.50;9.50;;;;;;7359973;19;20398;-63
2022/04/15 05:36:56;;;;;;;9.07;7.60;;;13.90;6.30;;;;;;7359525;19;20019;-60
2022/04/15 05:39:28;;;;;;;9.15;7.47;;;13.30;8.80;;;;;;7379336;19;20014;-61
2022/04/15 05:41:58;;;;;;;11.75;8.57;;;12.90;12.10;;;;;;7365278;19;20029;-62
2022/04/15 05:44:28;;;;;;;12.07;8.70;;;12.60;14.20;;;;;;7359456;19;20015;-62
2022/04/15 05:46:58;;;;;;;10.05;7.63;;;12.40;16.70;;;;;;7359070;19;20082;-62
2022/04/15 05:49:28;;;;;;;13.52;8.75;;;12.40;16.70;;;;;;7361755;19;20013;-62
2022/04/15 05:51:58;;;;;;;12.43;9.25;;;12.40;17.80;;;;;;7364859;19;20010;-62
2022/04/15 05:54:30;;;;;;;11.32;7.68;;;12.40;17.30;;;;;;7381740;19;20017;-62
2022/04/15 05:57:00;;;;;;;14.55;9.18;;;12.60;17.70;;;;;;7359657;19;20508;-62
2022/04/15 05:59:30;;;;;;;13.00;8.02;;;12.60;16.80;;;;;;7361260;19;20015;-62
2022/04/15 06:02:00;;;;;;;10.27;8.77;;;12.70;16.80;;;;;;7364690;19;20090;-62
2022/04/15 06:04:30;;;;;;;13.00;8.85;;;12.70;16.90;;;;;;7358469;19;20014;-61
2022/04/15 06:06:59;;;;;;;16.50;9.32;;;12.90;17.00;;;;;;7358748;19;20468;-62
2022/04/15 06:09:32;;;;;;;14.90;11.27;;;13.10;14.60;;;;;;7365009;19;20027;-62
2022/04/15 06:12:02;;;;;;;13.77;9.93;;;13.20;15.50;;;;;;7386118;19;20024;-62
2022/04/15 06:14:35;;;;;;;16.50;11.75;;;13.10;15.50;;;;;;7357523;19;20074;-62
2022/04/15 06:17:06;;;;;;;19.17;12.73;;;13.10;15.30;;;;;;7359772;19;20589;-61
2022/04/15 06:19:36;;;;;;;22.17;13.82;;;13.50;15.80;;;;;;7359260;19;20555;-62
2022/04/15 06:22:12;;;;;;;17.70;13.43;;;13.40;15.00;;;;;;7361106;19;20100;-62
2022/04/15 06:24:44;;;;;;;18.02;12.98;;;13.50;13.60;;;;;;7357926;19;20082;-62
2022/04/15 06:27:14;;;;;;;18.60;13.02;;;13.30;13.70;;;;;;7380058;19;20011;-62
2022/04/15 06:29:44;;;;;;;20.02;12.05;;;13.70;14.00;;;;;;7360057;19;20110;-62
2022/04/15 06:32:14;;;;;;;19.88;13.15;;;13.60;13.10;;;;;;7361276;19;20013;-62
2022/04/15 06:34:44;;;;;;;20.63;13.30;;;13.50;12.70;;;;;;7357195;19;20015;-62
2022/04/15 06:37:13;;;;;;;18.42;12.85;;;13.90;11.60;;;;;;7357985;19;20360;-62
2022/04/15 06:39:50;;;;;;;18.13;11.88;;;13.90;10.90;;;;;;7359371;19;20619;-62
2022/04/15 06:42:24;;;;;;;16.63;12.52;;;13.90;11.00;;;;;;7383886;19;20024;-61
2022/04/15 06:44:54;;;;;;;16.60;12.07;;;14.00;9.60;;;;;;7357067;19;20011;-62
2022/04/15 06:47:24;;;;;;;19.65;13.25;;;14.00;9.60;;;;;;7358448;19;20119;-62
2022/04/15 06:49:54;;;;;;;21.98;13.27;;;14.20;9.00;;;;;;7359216;19;20525;-62
2022/04/15 06:52:24;;;;;;;20.83;12.95;;;14.10;9.70;;;;;;7361000;19;20484;-62
2022/04/15 06:54:56;;;;;;;15.50;11.88;;;14.10;8.10;;;;;;7358260;19;20101;-62
2022/04/15 06:57:26;;;;;;;18.65;12.65;;;14.40;7.80;;;;;;7380798;19;20015;-62
2022/04/15 06:59:56;;;;;;;19.27;12.50;;;14.60;6.90;;;;;;7367092;19;20017;-62
2022/04/15 07:02:27;;;;;;;19.05;11.95;;;14.60;5.00;;;;;;7367066;19;20011;-61
2022/04/15 07:04:57;;;;;;;17.45;11.77;;;14.60;6.00;;;;;;7361543;19;20042;-62
2022/04/15 07:07:27;;;;;;;17.83;11.75;;;14.60;4.60;;;;;;7365521;19;20078;-62
2022/04/15 07:10:00;;;;;;;18.35;11.23;;;14.50;4.50;;;;;;7367085;19;20014;-62
2022/04/15 07:12:30;;;;;;;16.48;12.05;;;14.60;5.30;;;;;;7368719;19;20020;-61
2022/04/15 07:15:00;;;;;;;20.25;11.98;;;14.70;4.70;;;;;;7384020;19;20011;-61
2022/04/15 07:17:30;;;;;;;18.35;11.95;;;14.90;3.40;;;;;;7362106;19;20013;-61
2022/04/15 07:19:59;;;;;;;19.48;11.98;;;15.00;1.60;;;;;;7366145;19;20093;-61
2022/04/15 07:22:29;;;;;;;15.20;11.27;;;14.90;3.60;;;;;;7367355;19;20085;-61
2022/04/15 07:25:02;;;;;;;15.70;11.75;;;15.20;1.10;;;;;;7363245;19;20007;-61
2022/04/15 07:27:32;;;;;;;17.10;11.35;;;15.30;1.00;;;;;;7364310;19;20036;-61
2022/04/15 07:30:01;;;;;;;17.08;11.20;;;15.50;1.00;;;;;;7387612;19;20089;-61
2022/04/15 07:32:31;;;;;;;15.75;11.52;;;15.50;1.00;;;;;;7366504;19;20010;-61
2022/04/15 07:35:02;;;;;;;15.20;10.80;;;15.50;1.00;;;;;;7361714;19;20011;-61
2022/04/15 07:37:32;;;;;;;13.95;10.68;;;15.80;1.00;;;;;;7363691;19;20494;-61
2022/04/15 07:40:06;;;;;;;16.05;11.88;;;16.00;1.00;;;;;;7365306;19;20006;-61
2022/04/15 07:42:36;;;;;;;15.45;12.50;;;15.30;1.00;;;;;;7367283;19;20049;-62
2022/04/15 07:45:06;;;;;;;17.35;12.85;;;15.50;1.00;;;;;;7383430;19;20490;-61
2022/04/15 07:47:36;;;;;;;16.45;13.05;;;15.40;1.00;;;;;;7363555;19;20031;-62
2022/04/15 07:50:22;;;;;;;17.90;13.07;;;16.00;1.00;;;;;;7366284;19;20017;-61
2022/04/15 07:52:52;;;;;;;17.48;13.57;;;16.20;1.00;;;;;;7366718;19;20010;-61
2022/04/15 07:55:24;;;;;;;14.77;12.13;;;16.10;1.00;;;;;;7361875;19;20014;-62
2022/04/15 07:57:54;;;;;;;15.95;12.82;;;15.60;1.00;;;;;;7361102;19;20031;-62
2022/04/15 08:00:25;;;;;;;14.68;12.23;;;16.00;1.00;;;;;;7385007;19;20026;-62
2022/04/15 08:02:55;;;;;;;14.75;13.02;;;16.30;1.00;;;;;;7363520;19;20238;-63
2022/04/15 08:05:25;;;;;;;18.55;12.65;;;16.70;1.00;;;;;;7359697;19;20010;-63
2022/04/15 08:07:54;;;;;;;20.70;12.88;;;16.80;1.00;;;;;;7362635;19;20011;-63
2022/04/15 08:10:27;;;;;;;16.48;12.55;;;16.60;1.00;;;;;;7364234;19;20014;-63
2022/04/15 08:12:57;;;;;;;19.42;13.23;;;16.50;1.00;;;;;;7366164;19;20082;-63
2022/04/15 08:15:27;;;;;;;15.57;13.23;;;16.70;1.00;;;;;;7381575;19;20489;-63
2022/04/15 08:17:57;;;;;;;15.70;12.85;;;16.70;1.00;;;;;;7360838;19;20027;-63
2022/04/15 08:20:27;;;;;;;17.80;12.80;;;16.80;1.00;;;;;;7366217;19;20375;-63
2022/04/15 08:22:57;;;;;;;13.10;11.50;;;16.40;1.00;;;;;;7366081;19;20930;-63
2022/04/15 08:25:29;;;;;;;18.88;13.48;;;16.80;1.00;;;;;;7360842;19;20012;-63
2022/04/15 08:27:59;;;;;;;18.75;13.85;;;16.70;1.00;;;;;;7362407;19;20026;-64
2022/04/15 08:30:33;;;;;;;17.17;13.40;;;16.80;1.00;;;;;;7366576;19;20021;-63
2022/04/15 08:33:05;;;;;;;21.23;13.40;;;17.00;1.00;;;;;;7387330;19;20522;-63
2022/04/15 08:35:35;;;;;;;20.75;13.27;;;17.00;1.00;;;;;;7357782;19;20006;-64
2022/04/15 08:38:06;;;;;;;20.27;14.45;;;16.70;1.00;;;;;;7361685;19;20556;-63
2022/04/15 08:40:39;;;;;;;15.07;13.30;;;16.50;1.00;;;;;;7364581;19;20010;-64
2022/04/15 08:43:09;;;;;;;15.30;12.73;;;16.60;1.00;;;;;;7364488;19;20018;-63
2022/04/15 08:45:43;;;;;;;15.45;12.63;;;17.00;1.00;;;;;;7357326;19;20066;-63
2022/04/15 08:48:13;;;;;;;17.90;14.05;;;16.80;1.00;;;;;;7383716;19;20006;-63
2022/04/15 08:50:44;;;;;;;18.30;14.13;;;17.00;1.00;;;;;;7364839;19;20010;-63
2022/04/15 08:53:17;;;;;;;17.30;13.20;;;17.10;1.00;;;;;;7364343;19;20050;-63
2022/04/15 08:55:49;;;;;;;17.05;12.50;;;17.00;1.00;;;;;;7355445;19;20078;-62
2022/04/15 08:58:19;;;;;;;14.13;12.25;;;17.20;1.00;;;;;;7360960;19;20489;-63
2022/04/15 09:00:49;;;;;;;17.38;12.13;;;17.00;1.00;;;;;;7364568;19;19999;-64
2022/04/15 09:03:19;;;;;;;19.00;12.80;;;17.10;1.00;;;;;;7386503;19;20015;-63
2022/04/15 09:05:52;;;;;;;16.33;12.90;;;17.20;1.00;;;;;;7356117;19;20006;-63
2022/04/15 09:08:24;;;;;;;16.98;12.57;;;17.30;1.00;;;;;;7360783;19;20102;-63
2022/04/15 09:11:00;;;;;;;15.75;12.63;;;17.30;1.00;;;;;;7364254;19;20581;-64
2022/04/15 09:13:34;;;;;;;17.77;13.95;;;17.30;1.00;;;;;;7363698;19;20094;-64
2022/04/15 09:16:04;;;;;;;;;;;17.50;1.00;;;;;;7359248;19;20021;-63
2022/04/15 09:18:36;;;;;;;14.80;13.20;;;17.40;1.00;;;;;;7360695;19;20240;-64
2022/04/15 09:21:24;;;;;;;18.00;14.50;;;17.50;1.00;;;;;;7385672;19;20014;-63
2022/04/15 09:23:55;;;;;;;17.77;12.88;;;17.10;1.00;;;;;;7363077;19;20021;-66
2022/04/15 09:26:28;;;;;;;17.08;13.13;;;17.50;1.00;;;;;;7356352;19;20010;-65
2022/04/15 09:28:58;;;;;;;17.30;14.40;;;17.50;1.00;;;;;;7361882;19;20011;-63
2022/04/15 09:31:28;;;;;;;17.08;13.45;;;17.50;1.00;;;;;;7362875;19;20011;-63
2022/04/15 09:34:00;;;;;;;19.10;15.57;;;17.50;1.00;;;;;;7362258;19;20018;-63
2022/04/15 09:36:33;;;;;;;18.20;13.73;;;17.00;1.00;;;;;;7356555;19;20846;-64
2022/04/15 09:39:10;;;;;;;16.73;13.90;;;17.20;1.00;;;;;;7380983;19;20082;-64
2022/04/15 09:41:50;;;;;;;21.42;14.75;;;17.70;1.00;;;;;;7362131;19;20010;-64
2022/04/15 09:44:31;;;;;;;18.10;14.18;;;17.30;1.00;;;;;;7359101;19;20024;-64
2022/04/15 09:47:06;;;;;;;16.00;14.00;;;17.50;1.00;;;;;;7359811;19;20519;-64
2022/04/15 09:49:36;;;;;;;;;;;17.90;1.00;;;;;;7361320;19;20019;-65
2022/04/15 09:52:07;;;;;;;20.52;14.60;;;17.70;1.00;;;;;;7362235;19;19917;-64
2022/04/15 09:54:39;;;;;;;18.38;14.93;;;17.50;1.00;;;;;;7357462;19;20027;-64
2022/04/15 09:57:13;;;;;;;19.25;15.48;;;17.90;1.00;;;;;;7381582;19;20090;-63
2022/04/15 09:59:49;;;;;;;18.55;14.98;;;17.80;1.00;;;;;;7361085;19;20011;-64
2022/04/15 10:02:19;;;;;;;21.02;16.80;;;17.80;1.00;;;;;;7363067;19;20085;-63
2022/04/15 10:04:50;;;;;;;21.45;16.52;;;18.30;1.00;;;;;;7357860;19;20086;-64
2022/04/15 10:07:20;;;;;;;20.60;16.35;;;18.20;1.00;;;;;;7357385;19;20020;-64
2022/04/15 10:09:50;;;;;;;18.73;15.90;;;18.40;1.00;;;;;;7361290;19;19999;-64
2022/04/15 10:12:23;;;;;;;18.83;16.52;;;18.20;1.00;;;;;;7385300;19;20023;-64
2022/04/15 10:14:54;;;;;;;17.55;14.05;;;18.50;1.00;;;;;;7357562;19;20097;-63
2022/04/15 10:17:27;;;;;;;17.45;15.43;;;18.10;1.00;;;;;;7358689;19;20010;-64
2022/04/15 10:19:57;;;;;;;19.05;14.60;;;18.10;1.00;;;;;;7360464;19;20070;-64
2022/04/15 10:22:27;;;;;;;17.73;14.88;;;18.40;1.00;;;;;;7361789;19;20014;-64
2022/04/15 10:24:57;;;;;;;16.45;13.13;;;18.30;1.00;;;;;;7357790;19;20006;-64
2022/04/15 10:27:32;;;;;;;19.10;14.60;;;18.30;1.00;;;;;;7379706;19;20018;-64
2022/04/15 10:30:04;;;;;;;16.92;12.85;;;18.20;1.00;;;;;;7359865;19;20078;-64
2022/04/15 10:32:50;;;;;;;17.90;14.10;;;18.10;1.00;;;;;;7364069;19;20019;-64
2022/04/15 10:35:25;;;;;;;15.23;12.88;;;18.10;1.00;;;;;;7362396;19;20839;-63
2022/04/15 10:38:00;;;;;;;14.32;12.20;;;18.40;1.00;;;;;;7365247;19;20007;-65
2022/04/15 10:40:32;;;;;;;14.45;11.63;;;18.60;1.00;;;;;;7368617;19;20018;-64
2022/04/15 10:43:22;;;;;;;16.48;11.65;;;18.80;1.00;;;;;;7368403;19;20014;-64
2022/04/15 10:46:15;;;;;;;16.70;11.82;;;19.50;1.00;;;;;;7362190;19;20202;-65
2022/04/15 10:48:46;;;;;;;14.98;11.23;;;18.80;1.00;;;;;;7363091;19;20470;-65
2022/04/15 10:51:28;;;;;;;14.85;11.65;;;18.60;1.00;;;;;;7390508;19;20010;-63
2022/04/15 10:53:58;;;;;;;14.68;11.57;;;18.30;1.00;;;;;;7367176;19;20014;-64
2022/04/15 10:56:28;;;;;;;16.00;12.40;;;18.50;1.00;;;;;;7361349;19;20024;-63
2022/04/15 11:01:55;;;;;;;15.63;11.27;;;18.40;1.00;;;;;;7369043;19;20007;-64
2022/04/15 11:04:27;;;;;;;17.98;11.75;;;18.40;1.00;;;;;;7365059;19;20632;-63
2022/04/15 11:06:59;;;;;;;14.15;11.38;;;18.10;1.00;;;;;;7363911;19;20010;-63
2022/04/15 11:09:29;;;;;;;14.95;11.85;;;18.20;1.00;;;;;;7374496;19;20017;-64
2022/04/15 11:12:06;;;;;;;14.00;11.05;;;18.50;1.00;;;;;;7390063;19;20010;-64
2022/04/15 11:14:39;;;;;;;13.32;10.63;;;18.90;1.00;;;;;;7360905;19;20013;-66
2022/04/15 11:17:12;;;;;;;13.52;10.80;;;18.90;1.00;;;;;;7364327;19;20082;-63
2022/04/15 11:19:43;;;;;;;12.27;9.77;;;19.20;1.00;;;;;;7365437;19;20014;-64
2022/04/15 11:22:14;;;;;;;13.93;9.68;;;18.80;1.00;;;;;;7367121;19;20025;-64
2022/04/15 11:24:44;;;;;;;12.68;9.40;;;18.90;1.00;;;;;;7364332;19;20040;-63
2022/04/15 11:27:18;;;;;;;;;;;19.50;1.00;;;;;;7385590;19;20014;-63
2022/04/15 11:29:53;;;;;;;13.57;9.75;;;19.50;1.00;;;;;;7364648;19;19918;-63
2022/04/15 11:32:23;;;;;;;10.88;9.70;;;19.10;1.00;;;;;;7367606;19;20530;-63
2022/04/15 11:34:57;;;;;;;13.20;10.43;;;18.70;1.00;;;;;;7362486;19;20014;-64
2022/04/15 11:37:27;;;;;;;;;;;18.80;1.00;;;;;;7364474;19;20014;-64
2022/04/15 11:40:00;;;;;;;13.50;9.43;;;18.70;1.00;;;;;;7364114;19;20358;-63
2022/04/15 11:42:30;;;;;;;14.65;11.05;;;18.80;1.00;;;;;;7367461;19;20023;-63
2022/04/15 11:45:11;;;;;;;14.43;10.52;;;18.70;1.00;;;;;;7379083;19;20017;-63
2022/04/15 11:47:41;;;;;;;13.00;10.75;;;18.80;1.00;;;;;;7364049;19;20010;-63
2022/04/15 11:50:12;;;;;;;14.13;10.63;;;19.00;1.00;;;;;;7364543;19;20184;-63
2022/04/15 11:52:42;;;;;;;12.30;9.40;;;19.00;1.00;;;;;;7366110;19;20453;-64
2022/04/15 11:55:19;;;;;;;11.27;9.63;;;19.00;1.00;;;;;;7361331;19;20007;-64
2022/04/15 11:57:52;;;;;;;12.88;9.15;;;19.20;1.00;;;;;;7361265;19;20014;-64
2022/04/15 12:00:25;;;;;;;10.45;8.63;;;19.30;1.00;;;;;;7386037;19;20002;-64
2022/04/15 12:03:02;;;;;;;12.23;8.43;;;19.00;1.00;;;;;;7366389;19;20351;-63
2022/04/15 12:05:32;;;;;;;10.52;7.65;;;18.90;1.00;;;;;;7356876;19;20103;-63
2022/04/15 12:08:02;;;;;;;11.55;8.18;;;18.90;1.00;;;;;;7361165;19;20022;-64
2022/04/15 12:10:32;;;;;;;12.63;8.02;;;18.80;1.00;;;;;;7365396;19;20277;-63
2022/04/15 12:13:02;;;;;;;7.78;6.55;;;18.40;1.00;;;;;;7367291;19;20510;-64
2022/04/15 12:15:35;;;;;;;10.85;7.00;;;19.00;1.00;;;;;;7357515;19;20018;-64
2022/04/15 12:18:07;;;;;;;7.30;5.53;;;19.40;1.00;;;;;;7385248;19;20010;-64
2022/04/15 12:20:38;;;;;;;7.05;5.28;;;19.80;1.00;;;;;;7362846;19;20018;-65
2022/04/15 12:23:13;;;;;;;6.68;5.43;;;20.50;1.00;;;;;;7365717;19;20011;-64
2022/04/15 12:31:27;;;;;;;7.25;4.30;;;19.60;1.00;;;;;;7365606;19;20011;-64
2022/04/15 12:33:59;;;;;;;7.70;5.43;;;20.20;1.00;;;;;;7363800;19;20613;-64
2022/04/15 12:36:41;;;;;;;7.10;4.40;;;19.50;1.00;;;;;;7368531;19;20437;-65
2022/04/15 12:39:13;;;;;;;6.85;5.03;;;19.30;1.00;;;;;;7384130;19;20482;-65
2022/04/15 12:41:46;;;;;;;7.03;5.47;;;19.50;1.00;;;;;;7362234;19;20003;-64
2022/04/15 12:44:18;;;;;;;8.50;5.55;;;19.40;1.00;;;;;;7362894;19;20069;-64
2022/04/15 12:46:57;;;;;;;7.07;5.95;;;19.70;1.00;;;;;;7359659;19;20493;-64
2022/04/15 12:49:29;;;;;;;7.80;5.85;;;19.80;1.00;;;;;;7362363;19;20006;-62
2022/04/15 12:52:15;;;;;;;7.65;5.13;;;19.60;1.00;;;;;;7363533;19;20151;-65
2022/04/15 12:54:59;;;;;;;7.70;5.47;;;19.40;1.00;;;;;;7359802;19;20020;-64
2022/04/15 12:57:31;;;;;;;9.13;5.88;;;20.10;1.00;;;;;;7368650;19;20500;-65
2022/04/15 13:00:03;;;;;;;8.45;6.57;;;20.00;1.00;;;;;;7383737;19;20018;-64
2022/04/15 13:02:36;;;;;;;10.85;6.75;;;19.50;1.00;;;;;;7363161;19;20010;-63
2022/04/15 13:05:07;;;;;;;5.75;5.10;;;19.10;1.00;;;;;;7358645;19;20015;-63
2022/04/15 13:07:38;;;;;;;8.73;6.80;;;19.10;1.00;;;;;;7359848;19;20017;-63
2022/04/15 13:10:11;;;;;;;7.35;5.38;;;19.30;1.00;;;;;;7362203;19;20545;-65
2022/04/15 13:13:01;;;;;;;8.40;5.90;;;19.70;1.00;;;;;;7363516;19;20018;-63